KROA/ROA METAR and TAF weather

Enter ICAO airport designator
Station Type Date Time Source
KROA METAR 2024/07/15 20:54 UTC NOAA

KROA 152054Z 31008KT 10SM SCT095 38/15 A2995 RMK AO2 SLP125 T03780150 56024


Station Type Date Time Source
KROA Decoded METAR 2024/07/15 20:54 UTC NOAA

ROANOKE REGIONAL AIRPORT, VA, United States (KROA) 37-19N 079-58W 362M
Jul 15, 2024 - 04:54 PM EDT / 2024.07.15 2054 UTC
Wind: from the NW (310 degrees) at 9 MPH (8 KT):0
Visibility: 10 mile(s):0
Sky conditions: partly cloudy
Temperature: 100.0 F (37.8 C)
Heat index: 99.7 F (37.6 C):1
Dew Point: 59.0 F (15.0 C)
Relative Humidity: 25%
Pressure (altimeter): 29.95 in. Hg (1014 hPa)
Pressure tendency: 0.07 inches (2.4 hPa) lower than three hours ago
ob: KROA 152054Z 31008KT 10SM SCT095 38/15 A2995 RMK AO2 SLP125 T03780150 56024
cycle: 21

Station Type Date Time Source
KROA TAF 2024/07/15 18:24 UTC NOAA